createdAt,value
2023-03-10T00:00:41.111Z,2.80
2023-03-10T00:03:10.530Z,2.93
2023-03-10T00:05:38.682Z,2.80
2023-03-10T00:08:07.104Z,3.10
2023-03-10T00:10:35.161Z,3.00
2023-03-10T00:13:03.197Z,2.90
2023-03-10T00:15:31.706Z,2.97
2023-03-10T00:17:59.860Z,3.27
2023-03-10T00:20:29.303Z,3.30
2023-03-10T00:22:57.388Z,2.60
2023-03-10T00:25:30.180Z,3.00
2023-03-10T00:27:58.364Z,3.40
2023-03-10T00:30:32.954Z,3.10
2023-03-10T00:33:01.066Z,2.70
2023-03-10T00:35:30.529Z,2.90
2023-03-10T00:37:58.576Z,2.67
2023-03-10T00:40:26.582Z,2.30
2023-03-10T00:42:54.617Z,2.33
2023-03-10T00:45:22.647Z,2.70
2023-03-10T00:47:50.698Z,2.27
2023-03-10T00:50:18.937Z,2.53
2023-03-10T00:52:51.222Z,2.70
2023-03-10T00:55:19.436Z,2.27
2023-03-10T00:57:47.512Z,2.60
2023-03-10T01:00:17.995Z,2.40
2023-03-10T01:02:46.035Z,2.37
2023-03-10T01:05:14.055Z,2.50
2023-03-10T01:07:42.105Z,2.40
2023-03-10T01:10:12.907Z,2.03
2023-03-10T01:12:40.935Z,2.47
2023-03-10T01:15:09.883Z,2.30
2023-03-10T01:17:38.015Z,2.40
2023-03-10T01:20:08.407Z,2.27
2023-03-10T01:22:36.470Z,2.20
2023-03-10T01:25:04.679Z,1.97
2023-03-10T01:27:34.123Z,1.97
2023-03-10T01:30:02.320Z,1.83
2023-03-10T01:32:30.447Z,1.87
2023-03-10T01:34:58.511Z,2.00
2023-03-10T01:37:26.745Z,1.60
2023-03-10T01:39:54.780Z,1.73
2023-03-10T01:42:22.826Z,1.93
2023-03-10T01:45:10.262Z,1.63
2023-03-10T01:47:38.394Z,1.80
2023-03-10T01:50:08.703Z,1.77
2023-03-10T01:52:36.762Z,1.50
2023-03-10T01:55:07.980Z,2.03
2023-03-10T01:57:39.377Z,1.70
2023-03-10T02:00:12.872Z,1.60
2023-03-10T02:02:42.099Z,1.50
2023-03-10T02:05:10.303Z,1.77
2023-03-10T02:07:40.962Z,1.70
2023-03-10T02:10:10.511Z,1.70
2023-03-10T02:12:38.551Z,1.60
2023-03-10T02:15:09.012Z,1.50
2023-03-10T02:17:37.168Z,1.40
2023-03-10T02:20:17.478Z,1.20
2023-03-10T02:22:45.533Z,1.60
2023-03-10T02:25:20.297Z,1.50
2023-03-10T02:27:49.699Z,1.60
2023-03-10T02:30:18.889Z,1.40
2023-03-10T02:32:48.728Z,1.73
2023-03-10T02:35:16.892Z,1.30
2023-03-10T02:37:44.947Z,1.30
2023-03-10T02:40:32.004Z,1.70
2023-03-10T02:43:01.747Z,1.50
2023-03-10T02:45:31.771Z,1.43
2023-03-10T02:47:59.814Z,1.30
2023-03-10T02:50:28.567Z,1.20
2023-03-10T02:52:59.083Z,1.30
2023-03-10T02:55:27.105Z,1.37
2023-03-10T02:57:55.140Z,1.23
2023-03-10T03:00:24.856Z,1.17
2023-03-10T03:02:52.876Z,1.40
2023-03-10T03:05:24.297Z,1.10
2023-03-10T03:07:52.307Z,1.50
2023-03-10T03:10:20.554Z,1.20
2023-03-10T03:12:50.488Z,1.20
2023-03-10T03:15:18.660Z,1.53
2023-03-10T03:17:48.077Z,1.13
2023-03-10T03:20:18.525Z,1.10
2023-03-10T03:22:46.697Z,1.30
2023-03-10T03:25:17.413Z,1.17
2023-03-10T03:27:45.423Z,1.37
2023-03-10T03:30:15.631Z,1.00
2023-03-10T03:32:43.762Z,1.40
2023-03-10T03:35:14.303Z,1.23
2023-03-10T03:37:42.371Z,1.13
2023-03-10T03:40:13.239Z,1.30
2023-03-10T03:42:41.343Z,1.43
2023-03-10T03:45:10.010Z,1.33
2023-03-10T03:47:38.028Z,1.33
2023-03-10T03:50:07.185Z,1.10
2023-03-10T03:52:36.589Z,0.80
2023-03-10T03:55:05.470Z,1.50
2023-03-10T03:57:33.742Z,1.07
2023-03-10T04:00:01.752Z,1.07
2023-03-10T04:02:29.810Z,1.03
2023-03-10T04:04:57.875Z,1.10
2023-03-10T04:07:25.917Z,1.40
2023-03-10T04:09:55.309Z,1.10
2023-03-10T04:12:23.352Z,1.17
2023-03-10T04:14:51.691Z,1.03
2023-03-10T04:17:19.716Z,1.37
2023-03-10T04:20:00.750Z,1.23
2023-03-10T04:22:34.208Z,1.00
2023-03-10T04:25:03.674Z,1.00
2023-03-10T04:27:32.328Z,1.10
2023-03-10T04:30:00.337Z,1.20
2023-03-10T04:32:28.451Z,1.20
2023-03-10T04:34:56.538Z,1.00
2023-03-10T04:37:24.579Z,1.00
2023-03-10T04:39:52.600Z,1.00
2023-03-10T04:42:22.196Z,1.03
2023-03-10T04:44:52.074Z,1.10
2023-03-10T04:47:20.102Z,1.00
2023-03-10T04:49:48.125Z,1.10
2023-03-10T04:52:16.958Z,1.10
2023-03-10T04:54:45.000Z,1.20
2023-03-10T04:57:13.030Z,1.10
2023-03-10T04:59:42.433Z,1.20
2023-03-10T05:02:10.450Z,0.90
2023-03-10T05:04:39.506Z,0.80
2023-03-10T05:07:12.362Z,1.30
2023-03-10T05:09:40.395Z,1.50
2023-03-10T05:12:08.969Z,1.10
2023-03-10T05:14:38.054Z,1.77
2023-03-10T05:17:07.526Z,1.07
2023-03-10T05:19:35.675Z,0.80
2023-03-10T05:22:03.931Z,0.93
2023-03-10T05:24:32.041Z,1.10
2023-03-10T05:27:02.531Z,1.13
2023-03-10T05:29:30.759Z,1.03
2023-03-10T05:31:58.815Z,0.80
2023-03-10T05:34:28.211Z,1.20
2023-03-10T05:36:56.519Z,1.00
2023-03-10T05:39:30.394Z,1.10
2023-03-10T05:41:58.460Z,0.97
2023-03-10T05:44:26.559Z,1.50
2023-03-10T05:46:54.689Z,0.90
2023-03-10T05:49:22.753Z,1.27
2023-03-10T05:51:52.867Z,0.93
2023-03-10T05:54:20.928Z,0.90
2023-03-10T05:56:48.949Z,1.10
2023-03-10T05:59:16.981Z,1.07
2023-03-10T06:01:45.047Z,1.30
2023-03-10T06:04:13.124Z,1.10
2023-03-10T06:06:41.271Z,1.13
2023-03-10T06:09:10.666Z,0.90
2023-03-10T06:11:38.740Z,1.00
2023-03-10T06:14:06.795Z,0.90
2023-03-10T06:16:34.946Z,0.93
2023-03-10T06:19:03.098Z,1.30
2023-03-10T06:21:31.200Z,1.30
2023-03-10T06:23:59.395Z,1.17
2023-03-10T06:26:28.902Z,1.27
2023-03-10T06:28:56.933Z,0.87
2023-03-10T06:31:25.611Z,1.00
2023-03-10T06:33:53.829Z,0.93
2023-03-10T06:36:22.016Z,0.90
2023-03-10T06:38:50.162Z,1.10
2023-03-10T06:41:18.202Z,1.13
2023-03-10T06:43:47.579Z,1.30
2023-03-10T06:46:15.932Z,0.97
2023-03-10T06:48:44.233Z,1.03
2023-03-10T06:51:14.386Z,1.13
2023-03-10T06:53:42.430Z,1.10
2023-03-10T06:56:12.108Z,0.93
2023-03-10T06:58:40.183Z,0.70
2023-03-10T07:01:09.648Z,0.87
2023-03-10T07:03:37.725Z,0.90
2023-03-10T07:06:06.924Z,0.77
2023-03-10T07:08:34.962Z,0.90
2023-03-10T07:11:02.996Z,0.80
2023-03-10T07:13:31.026Z,1.00
2023-03-10T07:15:59.066Z,0.90
2023-03-10T07:18:29.661Z,1.00
2023-03-10T07:20:57.806Z,1.13
2023-03-10T07:23:26.084Z,1.20
2023-03-10T07:25:54.728Z,1.00
2023-03-10T07:28:22.747Z,1.20
2023-03-10T07:30:50.828Z,1.10
2023-03-10T07:33:19.010Z,1.20
2023-03-10T07:35:48.552Z,1.00
2023-03-10T07:38:16.758Z,0.83
2023-03-10T07:40:44.837Z,0.93
2023-03-10T07:43:12.868Z,0.77
2023-03-10T07:45:42.531Z,1.10
2023-03-10T07:48:10.538Z,0.73
2023-03-10T07:50:38.540Z,1.33
2023-03-10T07:53:07.951Z,0.70
2023-03-10T07:55:35.978Z,0.80
2023-03-10T07:58:04.046Z,1.13
2023-03-10T08:00:36.512Z,1.00
2023-03-10T08:03:06.488Z,1.00
2023-03-10T08:05:34.522Z,1.10
2023-03-10T08:08:02.578Z,1.30
2023-03-10T08:10:31.970Z,1.00
2023-03-10T08:12:59.985Z,1.20
2023-03-10T08:15:28.021Z,0.60
2023-03-10T08:17:56.061Z,1.33
2023-03-10T08:20:24.150Z,0.80
2023-03-10T08:22:53.932Z,1.30
2023-03-10T08:25:22.002Z,1.43
2023-03-10T08:27:51.599Z,0.90
2023-03-10T08:30:19.878Z,1.20
2023-03-10T08:32:48.010Z,1.63
2023-03-10T08:35:16.897Z,0.97
2023-03-10T08:37:44.961Z,1.10
2023-03-10T08:40:13.989Z,1.70
2023-03-10T08:42:42.020Z,1.10
2023-03-10T08:45:12.414Z,1.17
2023-03-10T08:47:40.477Z,1.20
2023-03-10T08:50:08.895Z,1.20
2023-03-10T08:52:38.132Z,1.10
2023-03-10T08:55:07.052Z,0.90
2023-03-10T08:57:35.076Z,1.30
2023-03-10T09:00:03.818Z,1.27
2023-03-10T09:02:33.722Z,1.27
2023-03-10T09:05:01.762Z,0.80
2023-03-10T09:07:30.027Z,1.27
2023-03-10T09:09:58.076Z,1.00
2023-03-10T09:12:30.104Z,1.00
2023-03-10T09:15:02.804Z,1.00
2023-03-10T09:17:32.198Z,1.20
2023-03-10T09:20:00.239Z,1.50
2023-03-10T09:22:28.309Z,0.93
2023-03-10T09:24:58.202Z,1.03
2023-03-10T09:27:28.200Z,1.27
2023-03-10T09:29:57.340Z,1.10
2023-03-10T09:32:27.652Z,1.20
2023-03-10T09:34:57.091Z,1.10
2023-03-10T09:37:25.123Z,1.20
2023-03-10T09:39:53.612Z,1.63
2023-03-10T09:42:37.858Z,1.03
2023-03-10T09:45:28.515Z,1.70
2023-03-10T09:48:07.962Z,1.13
2023-03-10T09:50:40.102Z,1.00
2023-03-10T09:53:14.462Z,1.30
2023-03-10T09:55:47.767Z,1.30
2023-03-10T09:58:28.111Z,1.00
2023-03-10T10:00:56.149Z,1.07
2023-03-10T10:03:25.077Z,1.30
2023-03-10T10:05:55.309Z,1.17
2023-03-10T10:08:28.080Z,1.37
2023-03-10T10:10:57.399Z,1.10
2023-03-10T10:13:30.963Z,1.30
2023-03-10T10:16:21.456Z,1.10
2023-03-10T10:18:50.631Z,1.07
2023-03-10T10:21:23.992Z,1.10
2023-03-10T10:23:52.858Z,1.30
2023-03-10T10:26:21.799Z,1.60
2023-03-10T10:28:51.563Z,1.33
2023-03-10T10:31:21.081Z,1.40
2023-03-10T10:33:59.499Z,1.43
2023-03-10T10:36:29.725Z,1.17
2023-03-10T10:38:57.829Z,1.10
2023-03-10T10:41:28.001Z,1.50
2023-03-10T10:43:57.929Z,0.87
2023-03-10T10:46:27.329Z,1.10
2023-03-10T10:49:09.124Z,1.13
2023-03-10T10:51:38.834Z,1.47
2023-03-10T10:54:20.567Z,1.60
2023-03-10T10:56:54.842Z,1.13
2023-03-10T10:59:28.764Z,1.00
2023-03-10T11:01:57.530Z,1.30
2023-03-10T11:04:26.819Z,1.37
2023-03-10T11:07:09.070Z,1.27
2023-03-10T11:09:37.123Z,1.47
2023-03-10T11:12:06.756Z,1.40
2023-03-10T11:14:39.920Z,1.13
2023-03-10T11:17:15.243Z,1.20
2023-03-10T11:19:53.554Z,1.23
2023-03-10T11:22:28.453Z,1.40
2023-03-10T11:24:59.172Z,1.10
2023-03-10T11:27:30.998Z,1.10
2023-03-10T11:30:04.615Z,1.33
2023-03-10T11:32:36.301Z,1.10
2023-03-10T11:35:12.218Z,1.13
2023-03-10T11:37:44.040Z,1.20
2023-03-10T11:40:19.789Z,1.20
2023-03-10T11:42:51.806Z,1.27
2023-03-10T11:45:26.364Z,1.40
2023-03-10T11:48:10.026Z,1.27
2023-03-10T11:50:41.317Z,1.00
2023-03-10T11:53:13.651Z,1.10
2023-03-10T11:55:41.697Z,1.20
2023-03-10T11:58:16.023Z,1.70
2023-03-10T12:00:44.072Z,0.83
2023-03-10T12:03:16.189Z,1.07
2023-03-10T12:05:46.929Z,1.40
2023-03-10T12:08:16.629Z,1.40
2023-03-10T12:10:44.960Z,1.50
2023-03-10T12:13:24.562Z,1.47
2023-03-10T12:15:53.861Z,1.20
2023-03-10T12:18:22.014Z,1.80
2023-03-10T12:21:16.479Z,1.73
2023-03-10T12:23:46.467Z,1.40
2023-03-10T12:26:14.526Z,1.17
2023-03-10T12:28:42.763Z,1.50
2023-03-10T12:31:11.568Z,1.63
2023-03-10T12:33:44.201Z,1.53
2023-03-10T12:36:15.156Z,1.63
2023-03-10T12:38:49.419Z,1.43
2023-03-10T12:41:48.113Z,1.50
2023-03-10T12:44:44.584Z,1.30
2023-03-10T12:47:31.497Z,1.70
2023-03-10T12:50:02.471Z,1.40
2023-03-10T12:52:35.830Z,1.40
2023-03-10T12:55:17.040Z,1.47
2023-03-10T12:57:49.903Z,1.77
2023-03-10T13:00:25.380Z,2.13
2023-03-10T13:02:55.654Z,1.20
2023-03-10T13:05:26.967Z,1.67
2023-03-10T13:07:56.984Z,1.33
2023-03-10T13:10:27.361Z,1.20
2023-03-10T13:12:57.724Z,1.30
2023-03-10T13:15:28.895Z,1.50
2023-03-10T13:18:09.900Z,1.70
2023-03-10T13:20:38.389Z,1.03
2023-03-10T13:23:06.519Z,1.63
2023-03-10T13:25:36.847Z,1.80
2023-03-10T13:28:11.995Z,1.30
2023-03-10T13:30:40.033Z,1.87
2023-03-10T13:33:19.646Z,2.10
2023-03-10T13:35:48.242Z,1.40
2023-03-10T13:38:17.819Z,1.90
2023-03-10T13:40:48.308Z,1.70
2023-03-10T13:43:36.109Z,1.47
2023-03-10T13:46:04.819Z,1.43
2023-03-10T13:48:36.783Z,1.47
2023-03-10T13:51:06.691Z,1.40
2023-03-10T13:53:34.792Z,1.60
2023-03-10T13:56:17.514Z,1.70
2023-03-10T13:58:45.716Z,1.53
2023-03-10T14:01:19.988Z,1.30
2023-03-10T14:03:58.771Z,1.80
2023-03-10T14:06:27.621Z,1.50
2023-03-10T14:08:55.667Z,1.23
2023-03-10T14:11:36.712Z,1.23
2023-03-10T14:14:08.043Z,1.30
2023-03-10T14:16:47.446Z,1.47
2023-03-10T14:19:15.627Z,1.50
2023-03-10T14:22:00.067Z,1.53
2023-03-10T14:24:29.178Z,1.40
2023-03-10T14:27:00.716Z,1.10
2023-03-10T14:29:30.740Z,1.23
2023-03-10T14:31:58.801Z,0.97
2023-03-10T14:34:26.850Z,1.40
2023-03-10T14:36:54.875Z,1.53
2023-03-10T14:39:22.891Z,1.33
2023-03-10T14:41:50.993Z,1.10
2023-03-10T14:44:20.420Z,1.07
2023-03-10T14:49:38.530Z,1.10
2023-03-10T14:52:10.596Z,1.20
2023-03-10T14:54:38.664Z,1.40
2023-03-10T14:57:07.224Z,1.63
2023-03-10T14:59:36.623Z,1.30
2023-03-10T15:02:07.317Z,1.23
2023-03-10T15:04:35.516Z,1.00
2023-03-10T15:07:03.552Z,1.47
2023-03-10T15:09:31.597Z,0.80
2023-03-10T15:11:59.840Z,1.10
2023-03-10T15:14:28.136Z,1.00
2023-03-10T15:16:57.543Z,0.80
2023-03-10T15:19:26.516Z,1.00
2023-03-10T15:21:54.718Z,1.03
2023-03-10T15:24:22.747Z,1.00
2023-03-10T15:26:51.264Z,1.13
2023-03-10T15:29:20.047Z,1.07
2023-03-10T15:31:48.184Z,1.00
2023-03-10T15:34:20.772Z,0.93
2023-03-10T15:36:48.843Z,1.40
2023-03-10T15:39:30.779Z,0.87
2023-03-10T15:41:59.358Z,0.83
2023-03-10T15:44:27.398Z,0.80
2023-03-10T15:46:55.918Z,0.80
2023-03-10T15:49:25.515Z,0.97
2023-03-10T15:51:53.548Z,0.90
2023-03-10T15:54:21.582Z,0.80
2023-03-10T15:56:49.605Z,0.67
2023-03-10T15:59:17.814Z,0.77
2023-03-10T16:01:45.904Z,0.70
2023-03-10T16:04:14.039Z,1.23
2023-03-10T16:06:43.464Z,0.67
2023-03-10T16:09:11.528Z,0.97
2023-03-10T16:11:39.584Z,0.90
2023-03-10T16:14:07.612Z,0.73
2023-03-10T16:16:35.789Z,1.00
2023-03-10T16:19:03.891Z,0.93
2023-03-10T16:21:31.891Z,0.77
2023-03-10T16:24:01.299Z,0.80
2023-03-10T16:26:35.064Z,0.63
2023-03-10T16:29:03.132Z,0.70
2023-03-10T16:31:31.197Z,0.60
2023-03-10T16:33:59.473Z,0.67
2023-03-10T16:36:28.521Z,0.90
2023-03-10T16:38:56.544Z,0.77
2023-03-10T16:41:27.386Z,0.90
2023-03-10T16:43:56.600Z,1.00
2023-03-10T16:46:26.083Z,0.63
2023-03-10T16:48:54.658Z,1.00
2023-03-10T16:51:25.357Z,1.10
2023-03-10T16:53:53.499Z,0.90
2023-03-10T16:56:21.660Z,0.80
2023-03-10T16:58:51.048Z,0.90
2023-03-10T17:01:19.167Z,0.77
2023-03-10T17:03:48.868Z,0.80
2023-03-10T17:06:17.925Z,0.70
2023-03-10T17:08:46.134Z,0.90
2023-03-10T17:11:21.518Z,0.67
2023-03-10T17:13:53.162Z,0.70
2023-03-10T17:16:23.451Z,0.80
2023-03-10T17:18:51.799Z,0.80
2023-03-10T17:21:20.819Z,0.67
2023-03-10T17:23:48.936Z,0.53
2023-03-10T17:26:16.995Z,1.10
2023-03-10T17:28:49.720Z,0.90
2023-03-10T17:31:20.683Z,0.97
2023-03-10T17:33:48.986Z,1.03
2023-03-10T17:36:17.295Z,0.90
2023-03-10T17:38:45.370Z,1.00
2023-03-10T17:41:14.154Z,0.97
2023-03-10T17:43:42.236Z,1.00
2023-03-10T17:46:12.302Z,0.80
2023-03-10T17:48:41.826Z,1.10
2023-03-10T17:51:10.162Z,0.90
2023-03-10T17:53:38.196Z,1.00
2023-03-10T17:56:06.750Z,1.30
2023-03-10T17:58:34.882Z,1.03
2023-03-10T18:01:08.045Z,1.20
2023-03-10T18:03:37.368Z,1.33
2023-03-10T18:06:12.613Z,0.93
2023-03-10T18:08:40.678Z,1.00
2023-03-10T18:11:08.736Z,1.37
2023-03-10T18:13:36.768Z,1.33
2023-03-10T18:16:08.063Z,1.20
2023-03-10T18:18:36.118Z,1.43
2023-03-10T18:21:04.231Z,1.40
2023-03-10T18:23:33.638Z,1.40
2023-03-10T18:26:01.674Z,1.00
2023-03-10T18:28:29.729Z,1.10
2023-03-10T18:30:57.929Z,1.40
2023-03-10T18:33:25.984Z,1.27
2023-03-10T18:35:54.010Z,1.30
2023-03-10T18:38:22.179Z,1.50
2023-03-10T18:40:57.674Z,1.20
2023-03-10T18:43:26.448Z,1.40
2023-03-10T18:45:54.485Z,1.50
2023-03-10T18:48:25.605Z,1.60
2023-03-10T18:50:53.665Z,1.80
2023-03-10T18:53:21.756Z,1.47
2023-03-10T18:55:51.143Z,1.37
2023-03-10T18:58:19.181Z,1.93
2023-03-10T19:00:47.336Z,1.40
2023-03-10T19:03:15.395Z,2.00
2023-03-10T19:05:43.596Z,1.80
2023-03-10T19:08:19.053Z,1.73
2023-03-10T19:10:48.448Z,1.53
2023-03-10T19:13:17.835Z,1.50
2023-03-10T19:15:45.939Z,1.73
2023-03-10T19:18:13.986Z,1.60
2023-03-10T19:20:42.657Z,1.90
2023-03-10T19:23:10.739Z,2.10
2023-03-10T19:25:38.814Z,2.03
2023-03-10T19:28:07.512Z,2.40
2023-03-10T19:30:36.936Z,2.27
2023-03-10T19:33:05.161Z,2.00
2023-03-10T19:35:33.282Z,2.00
2023-03-10T19:38:01.504Z,2.23
2023-03-10T19:40:29.700Z,2.57
2023-03-10T19:42:58.031Z,2.10
2023-03-10T19:45:26.095Z,2.53
2023-03-10T19:47:57.893Z,2.13
2023-03-10T19:50:26.347Z,2.30
2023-03-10T19:52:54.367Z,1.70
2023-03-10T19:55:23.860Z,2.40
2023-03-10T19:57:52.654Z,2.17
2023-03-10T20:00:24.872Z,2.30
2023-03-10T20:02:53.134Z,2.03
2023-03-10T20:05:22.861Z,2.30
2023-03-10T20:07:50.922Z,1.97
2023-03-10T20:10:19.154Z,2.30
2023-03-10T20:12:47.847Z,1.80
2023-03-10T20:15:17.310Z,2.20
2023-03-10T20:17:45.402Z,2.10
2023-03-10T20:20:15.265Z,2.70
2023-03-10T20:22:45.597Z,1.83
2023-03-10T20:25:15.542Z,2.10
2023-03-10T20:27:43.628Z,2.07
2023-03-10T20:30:14.258Z,1.90
2023-03-10T20:32:42.381Z,2.10
2023-03-10T20:35:10.511Z,2.13
2023-03-10T20:37:38.756Z,2.03
2023-03-10T20:40:11.196Z,2.10
2023-03-10T20:42:39.268Z,1.90
2023-03-10T20:45:08.779Z,1.97
2023-03-10T20:47:36.848Z,1.50
2023-03-10T20:50:05.676Z,1.87
2023-03-10T20:52:34.678Z,2.00
2023-03-10T20:55:03.000Z,1.60
2023-03-10T20:57:32.760Z,1.67
2023-03-10T21:00:00.829Z,2.10
2023-03-10T21:02:28.864Z,1.40
2023-03-10T21:04:56.926Z,1.67
2023-03-10T21:07:24.968Z,1.60
2023-03-10T21:09:52.990Z,1.40
2023-03-10T21:12:21.221Z,1.17
2023-03-10T21:14:50.642Z,1.77
2023-03-10T21:17:18.675Z,1.70
2023-03-10T21:19:46.764Z,1.73
2023-03-10T21:22:25.157Z,1.53
2023-03-10T21:24:53.404Z,1.50
2023-03-10T21:27:21.900Z,1.70
2023-03-10T21:29:51.437Z,1.70
2023-03-10T21:32:19.623Z,1.70
2023-03-10T21:34:47.670Z,1.53
2023-03-10T21:37:19.189Z,1.80
2023-03-10T21:39:48.147Z,1.87
2023-03-10T21:42:16.206Z,1.50
2023-03-10T21:44:44.257Z,1.50
2023-03-10T21:47:13.727Z,1.70
2023-03-10T21:49:41.805Z,1.60
2023-03-10T21:52:10.942Z,1.50
2023-03-10T21:54:39.140Z,1.40
2023-03-10T21:57:07.309Z,1.30
2023-03-10T21:59:35.339Z,1.70
2023-03-10T22:02:03.597Z,1.50
2023-03-10T22:04:33.770Z,1.50
2023-03-10T22:07:02.763Z,1.30
2023-03-10T22:09:31.278Z,1.37
2023-03-10T22:11:59.330Z,1.63
2023-03-10T22:14:27.755Z,1.50
2023-03-10T22:16:55.794Z,1.40
2023-03-10T22:19:24.648Z,1.37
2023-03-10T22:21:54.061Z,1.20
2023-03-10T22:24:22.074Z,1.30
2023-03-10T22:26:50.118Z,1.30
2023-03-10T22:29:18.129Z,1.50
2023-03-10T22:31:46.184Z,1.00
2023-03-10T22:34:19.213Z,1.60
2023-03-10T22:36:47.281Z,1.60
2023-03-10T22:39:16.685Z,1.80
2023-03-10T22:41:44.751Z,1.50
2023-03-10T22:44:12.770Z,2.30
2023-03-10T22:46:40.885Z,1.30
2023-03-10T22:49:08.977Z,1.40
2023-03-10T22:51:37.074Z,1.60
2023-03-10T22:54:05.184Z,1.23
2023-03-10T22:56:34.668Z,1.40
2023-03-10T22:59:04.019Z,1.47
2023-03-10T23:01:32.201Z,1.30
2023-03-10T23:04:00.364Z,1.47
2023-03-10T23:06:37.319Z,1.20
2023-03-10T23:09:06.705Z,1.80
2023-03-10T23:11:36.813Z,1.60
2023-03-10T23:14:04.853Z,1.40
2023-03-10T23:16:36.158Z,1.80
2023-03-10T23:19:08.690Z,1.50
2023-03-10T23:21:36.801Z,1.50
2023-03-10T23:24:05.390Z,1.40
2023-03-10T23:26:35.104Z,1.23
2023-03-10T23:29:04.580Z,1.30
2023-03-10T23:31:32.637Z,1.40
2023-03-10T23:34:00.674Z,1.20
2023-03-10T23:36:28.805Z,1.27
2023-03-10T23:38:56.888Z,1.30
2023-03-10T23:41:24.945Z,1.30
2023-03-10T23:43:53.544Z,1.50
2023-03-10T23:46:23.914Z,1.23
2023-03-10T23:48:52.381Z,1.43
2023-03-10T23:51:20.468Z,1.20
2023-03-10T23:53:48.541Z,1.73
2023-03-10T23:56:16.627Z,1.23
2023-03-10T23:58:44.638Z,1.23
